createdAt,value
2016-08-10T00:00:46.750Z,0
2016-08-10T00:01:45.162Z,0
2016-08-10T00:02:45.296Z,0
2016-08-10T00:03:45.098Z,0
2016-08-10T00:04:45.099Z,0
2016-08-10T00:05:47.889Z,0
2016-08-10T00:06:48.721Z,0
2016-08-10T00:07:46.908Z,0
2016-08-10T00:08:47.129Z,0
2016-08-10T00:09:46.120Z,0
2016-08-10T00:10:45.072Z,0
2016-08-10T00:11:45.497Z,0
2016-08-10T00:12:45.290Z,0
2016-08-10T00:13:45.073Z,0
2016-08-10T00:14:45.065Z,0
2016-08-10T00:15:45.049Z,0
2016-08-10T00:16:45.043Z,0
2016-08-10T00:17:45.046Z,0
2016-08-10T00:18:45.043Z,0
2016-08-10T00:20:45.032Z,0
2016-08-10T00:21:45.030Z,0
2016-08-10T00:22:45.031Z,0
2016-08-10T00:23:45.022Z,0
2016-08-10T00:24:45.046Z,0
2016-08-10T00:25:45.015Z,0
2016-08-10T00:26:45.012Z,0
2016-08-10T00:27:45.029Z,0
2016-08-10T00:28:45.005Z,0
2016-08-10T00:29:45.007Z,0
2016-08-10T00:30:45.001Z,0
2016-08-10T00:31:45.009Z,0
2016-08-10T00:32:44.987Z,0
2016-08-10T00:33:44.990Z,0
2016-08-10T00:34:44.988Z,0
2016-08-10T00:35:45.693Z,0
2016-08-10T00:36:44.986Z,0
2016-08-10T00:37:44.981Z,0
2016-08-10T00:38:45.677Z,0
2016-08-10T00:39:44.972Z,0
2016-08-10T00:40:44.970Z,0
2016-08-10T00:41:44.969Z,0
2016-08-10T00:42:47.991Z,0
2016-08-10T00:43:47.986Z,0
2016-08-10T00:44:45.348Z,0
2016-08-10T00:45:47.553Z,0
2016-08-10T00:46:47.666Z,0
2016-08-10T00:48:44.928Z,0
2016-08-10T00:49:44.936Z,0
2016-08-10T00:50:44.920Z,0
2016-08-10T00:51:44.913Z,0
2016-08-10T00:52:44.930Z,0
2016-08-10T00:53:51.395Z,0
2016-08-10T00:55:00.471Z,0
2016-08-10T00:56:45.460Z,0
2016-08-10T00:57:45.652Z,0
2016-08-10T00:59:44.892Z,0
2016-08-10T01:00:44.892Z,0
2016-08-10T01:01:44.891Z,0
2016-08-10T01:04:00.147Z,0
2016-08-10T01:05:00.136Z,0
2016-08-10T01:07:00.348Z,0
2016-08-10T01:07:46.418Z,0
2016-08-10T01:08:44.857Z,0
2016-08-10T01:09:44.950Z,0
2016-08-10T01:10:45.549Z,0
2016-08-10T01:11:45.645Z,0
2016-08-10T01:12:44.844Z,0
2016-08-10T01:13:44.834Z,0
2016-08-10T01:14:47.758Z,0
2016-08-10T01:15:47.890Z,0
2016-08-10T01:16:48.494Z,0
2016-08-10T01:17:45.710Z,0
2016-08-10T01:18:45.954Z,0
2016-08-10T01:19:44.901Z,0
2016-08-10T01:20:45.450Z,0
2016-08-10T01:21:45.287Z,0
2016-08-10T01:22:44.814Z,0
2016-08-10T01:23:44.831Z,0
2016-08-10T01:25:47.049Z,0
2016-08-10T01:26:47.835Z,0
2016-08-10T01:27:45.375Z,0
2016-08-10T01:28:44.784Z,0
2016-08-10T01:29:45.669Z,0
2016-08-10T01:30:44.766Z,0
2016-08-10T01:31:44.781Z,0
2016-08-10T01:32:44.777Z,0
2016-08-10T01:33:44.776Z,0
2016-08-10T01:34:44.758Z,0
2016-08-10T01:35:44.758Z,0
2016-08-10T01:36:44.750Z,0
2016-08-10T01:37:44.751Z,0
2016-08-10T01:38:44.743Z,0
2016-08-10T01:39:44.746Z,0
2016-08-10T01:40:44.740Z,0
2016-08-10T01:41:44.749Z,0
2016-08-10T01:42:44.720Z,0
2016-08-10T01:43:44.746Z,0
2016-08-10T01:44:44.727Z,0
2016-08-10T01:45:45.414Z,0
2016-08-10T01:46:44.716Z,0
2016-08-10T01:47:44.712Z,0
2016-08-10T01:48:44.711Z,0
2016-08-10T01:49:44.708Z,0
2016-08-10T01:50:44.692Z,0
2016-08-10T01:51:44.712Z,0
2016-08-10T01:52:44.692Z,0
2016-08-10T01:53:44.695Z,0
2016-08-10T01:54:44.684Z,0
2016-08-10T01:55:44.671Z,0
2016-08-10T01:56:44.670Z,0
2016-08-10T01:57:44.672Z,0
2016-08-10T01:58:44.667Z,0
2016-08-10T01:59:44.664Z,0
2016-08-10T02:00:45.356Z,0
2016-08-10T02:01:44.656Z,0
2016-08-10T02:02:44.655Z,0
2016-08-10T02:03:44.659Z,0
2016-08-10T02:04:44.642Z,0
2016-08-10T02:05:44.638Z,0
2016-08-10T02:06:44.635Z,0
2016-08-10T02:07:44.683Z,0
2016-08-10T02:08:44.625Z,0
2016-08-10T02:09:44.627Z,0
2016-08-10T02:10:44.619Z,0
2016-08-10T02:11:44.616Z,0
2016-08-10T02:12:59.975Z,0
2016-08-10T02:13:45.006Z,0
2016-08-10T02:14:45.553Z,0
2016-08-10T02:15:59.665Z,0
2016-08-10T02:16:45.165Z,0
2016-08-10T02:17:44.598Z,0
2016-08-10T02:18:44.595Z,0
2016-08-10T02:19:44.578Z,0
2016-08-10T02:20:44.567Z,0
2016-08-10T02:22:00.991Z,0
2016-08-10T02:22:45.715Z,0
2016-08-10T02:23:45.264Z,0
2016-08-10T02:24:59.481Z,0
2016-08-10T02:25:59.479Z,0
2016-08-10T02:26:44.600Z,0
2016-08-10T02:27:44.546Z,0
2016-08-10T02:28:44.545Z,0
2016-08-10T02:29:44.547Z,0
2016-08-10T02:30:44.529Z,0
2016-08-10T02:31:44.523Z,0
2016-08-10T02:32:44.520Z,0
2016-08-10T02:34:03.137Z,0
2016-08-10T02:34:48.310Z,0
2016-08-10T02:35:46.178Z,0
2016-08-10T02:36:47.040Z,0
2016-08-10T02:37:46.444Z,0
2016-08-10T02:38:45.090Z,0
2016-08-10T02:39:44.507Z,0
2016-08-10T02:40:44.494Z,0
2016-08-10T02:41:44.495Z,0
2016-08-10T02:43:46.840Z,0
2016-08-10T02:44:48.418Z,0
2016-08-10T02:45:46.467Z,0
2016-08-10T02:46:46.320Z,0
2016-08-10T02:47:45.256Z,0
2016-08-10T02:48:44.462Z,0
2016-08-10T02:49:44.454Z,0
2016-08-10T02:50:44.454Z,0
2016-08-10T02:51:44.453Z,0
2016-08-10T02:52:45.147Z,0
2016-08-10T02:53:44.435Z,0
2016-08-10T02:54:45.134Z,0
2016-08-10T02:55:44.439Z,0
2016-08-10T02:56:44.439Z,0
2016-08-10T02:57:44.431Z,0
2016-08-10T02:58:44.421Z,0
2016-08-10T02:59:44.419Z,0
2016-08-10T03:00:44.425Z,0
2016-08-10T03:01:44.409Z,0
2016-08-10T03:02:44.406Z,0
2016-08-10T03:03:44.409Z,0
2016-08-10T03:04:44.403Z,0
2016-08-10T03:05:44.388Z,0
2016-08-10T03:06:44.392Z,0
2016-08-10T03:07:44.397Z,0
2016-08-10T03:08:44.384Z,0
2016-08-10T03:09:44.378Z,0
2016-08-10T03:10:44.374Z,0
2016-08-10T03:11:44.367Z,0
2016-08-10T03:12:44.358Z,0
2016-08-10T03:13:44.363Z,0
2016-08-10T03:14:44.358Z,0
2016-08-10T03:15:44.356Z,0
2016-08-10T03:16:44.348Z,0
2016-08-10T03:17:44.346Z,0
2016-08-10T03:18:44.337Z,0
2016-08-10T03:19:45.030Z,0
2016-08-10T03:20:44.339Z,0
2016-08-10T03:21:44.330Z,0
2016-08-10T03:22:44.326Z,0
2016-08-10T03:23:44.316Z,0
2016-08-10T03:24:44.316Z,0
2016-08-10T03:25:44.297Z,0
2016-08-10T03:26:44.302Z,0
2016-08-10T03:27:44.305Z,0
2016-08-10T03:28:44.308Z,0
2016-08-10T03:29:44.304Z,0
2016-08-10T03:30:45.902Z,0
2016-08-10T03:32:00.253Z,0
2016-08-10T03:32:44.527Z,0
2016-08-10T03:33:44.729Z,0
2016-08-10T03:34:44.715Z,0
2016-08-10T03:35:44.268Z,0
2016-08-10T03:36:44.968Z,0
2016-08-10T03:37:44.267Z,0
2016-08-10T03:38:44.260Z,5
2016-08-10T03:40:00.770Z,5
2016-08-10T03:41:00.356Z,5
2016-08-10T03:42:44.433Z,5
2016-08-10T03:43:44.834Z,5
2016-08-10T03:44:44.283Z,5
2016-08-10T03:45:44.223Z,5
2016-08-10T03:46:44.217Z,10
2016-08-10T03:47:44.260Z,10
2016-08-10T03:48:44.206Z,10
2016-08-10T03:49:44.204Z,10
2016-08-10T03:50:44.203Z,10
2016-08-10T03:51:45.764Z,10
2016-08-10T03:53:46.508Z,15
2016-08-10T03:54:44.991Z,15
2016-08-10T03:55:45.282Z,15
2016-08-10T03:56:45.046Z,15
2016-08-10T03:57:44.168Z,15
2016-08-10T03:58:44.166Z,20
2016-08-10T03:59:44.163Z,20
2016-08-10T04:00:47.492Z,20
2016-08-10T04:01:46.532Z,20
2016-08-10T04:02:45.600Z,20
2016-08-10T04:03:44.492Z,25
2016-08-10T04:04:45.139Z,25
2016-08-10T04:05:45.285Z,25
2016-08-10T04:06:44.403Z,30
2016-08-10T04:07:44.182Z,30
2016-08-10T04:08:44.136Z,30
2016-08-10T04:09:44.117Z,35
2016-08-10T04:10:44.135Z,35
2016-08-10T04:11:44.109Z,40
2016-08-10T04:12:44.107Z,40
2016-08-10T04:13:44.107Z,45
2016-08-10T04:14:44.097Z,50
2016-08-10T04:15:44.099Z,55
2016-08-10T04:16:44.094Z,55
2016-08-10T04:17:44.082Z,60
2016-08-10T04:18:44.074Z,65
2016-08-10T04:19:44.075Z,65
2016-08-10T04:20:44.073Z,65
2016-08-10T04:21:44.064Z,70
2016-08-10T04:24:45.665Z,85
2016-08-10T04:25:50.326Z,90
2016-08-10T04:26:44.044Z,95
2016-08-10T04:28:44.030Z,100
2016-08-10T04:29:44.032Z,105
2016-08-10T04:30:44.032Z,110
2016-08-10T04:31:44.032Z,110
2016-08-10T04:32:44.018Z,115
2016-08-10T04:33:44.006Z,115
2016-08-10T04:34:44.009Z,115
2016-08-10T04:35:44.011Z,120
2016-08-10T04:36:44.002Z,120
2016-08-10T04:37:44.002Z,120
2016-08-10T04:38:44.001Z,120
2016-08-10T04:39:43.989Z,120
2016-08-10T04:40:44.685Z,120
2016-08-10T04:41:43.981Z,120
2016-08-10T04:42:43.986Z,130
2016-08-10T04:43:43.979Z,130
2016-08-10T04:44:43.964Z,135
2016-08-10T04:45:43.967Z,140
2016-08-10T04:46:43.973Z,150
2016-08-10T04:47:43.960Z,155
2016-08-10T04:48:59.019Z,160
2016-08-10T04:49:44.745Z,165
2016-08-10T04:51:00.309Z,165
2016-08-10T04:51:44.556Z,170
2016-08-10T04:52:43.954Z,170
2016-08-10T04:53:44.149Z,170
2016-08-10T04:54:43.929Z,165
2016-08-10T04:55:44.125Z,160
2016-08-10T04:56:43.919Z,155
2016-08-10T04:57:45.269Z,150
2016-08-10T04:58:58.840Z,145
2016-08-10T04:59:59.437Z,145
2016-08-10T05:00:58.825Z,140
2016-08-10T05:01:44.013Z,140
2016-08-10T05:02:44.657Z,145
2016-08-10T05:03:44.248Z,150
2016-08-10T05:04:43.894Z,150
2016-08-10T05:05:43.885Z,150
2016-08-10T05:06:43.887Z,150
2016-08-10T05:07:43.902Z,145
2016-08-10T05:08:43.962Z,135
2016-08-10T05:10:48.090Z,125
2016-08-10T05:11:45.245Z,130
2016-08-10T05:12:44.341Z,135
2016-08-10T05:13:45.240Z,140
2016-08-10T05:14:45.034Z,145
2016-08-10T05:15:44.443Z,150
2016-08-10T05:16:43.857Z,150
2016-08-10T05:17:43.855Z,155
2016-08-10T05:18:46.801Z,155
2016-08-10T05:19:46.587Z,160
2016-08-10T05:20:46.261Z,165
2016-08-10T05:21:45.902Z,170
2016-08-10T05:22:45.024Z,175
2016-08-10T05:24:43.831Z,185
2016-08-10T05:25:44.113Z,195
2016-08-10T05:26:43.846Z,200
2016-08-10T05:27:43.818Z,205
2016-08-10T05:28:43.812Z,200
2016-08-10T05:29:43.820Z,200
2016-08-10T05:30:43.819Z,210
2016-08-10T05:31:44.511Z,215
2016-08-10T05:32:44.115Z,215
2016-08-10T05:33:43.814Z,215
2016-08-10T05:34:45.191Z,220
2016-08-10T05:35:43.798Z,220
2016-08-10T05:36:43.792Z,215
2016-08-10T05:37:43.794Z,210
2016-08-10T05:38:43.807Z,210
2016-08-10T05:39:43.783Z,210
2016-08-10T05:40:43.808Z,210
2016-08-10T05:41:43.779Z,205
2016-08-10T05:42:43.778Z,190
2016-08-10T05:43:43.772Z,180
2016-08-10T05:44:43.780Z,180
2016-08-10T05:45:43.765Z,180
2016-08-10T05:46:43.763Z,185
2016-08-10T05:47:43.763Z,190
2016-08-10T05:48:43.764Z,195
2016-08-10T05:49:43.752Z,195
2016-08-10T05:50:43.753Z,195
2016-08-10T05:51:43.757Z,190
2016-08-10T05:52:43.753Z,185
2016-08-10T05:53:43.745Z,180
2016-08-10T05:54:43.750Z,175
2016-08-10T05:55:44.450Z,170
2016-08-10T05:56:43.739Z,165
2016-08-10T05:57:43.748Z,160
2016-08-10T05:58:43.734Z,165
2016-08-10T05:59:45.142Z,170
2016-08-10T06:00:44.004Z,165
2016-08-10T06:01:44.426Z,165
2016-08-10T06:02:43.737Z,165
2016-08-10T06:03:43.723Z,165
2016-08-10T06:04:43.712Z,165
2016-08-10T06:05:44.419Z,160
2016-08-10T06:07:00.590Z,170
2016-08-10T06:07:58.632Z,180
2016-08-10T06:09:58.629Z,210
2016-08-10T06:10:43.757Z,215
2016-08-10T06:11:44.065Z,225
2016-08-10T06:12:44.001Z,245
2016-08-10T06:13:43.704Z,255
2016-08-10T06:14:43.706Z,270
2016-08-10T06:15:43.938Z,285
2016-08-10T06:17:13.577Z,325
2016-08-10T06:18:28.499Z,370
2016-08-10T06:18:58.605Z,390
2016-08-10T06:19:44.198Z,410
2016-08-10T06:20:44.737Z,425
2016-08-10T06:21:43.677Z,440
2016-08-10T06:22:43.678Z,435
2016-08-10T06:23:43.700Z,415
2016-08-10T06:24:43.686Z,395
2016-08-10T06:25:43.679Z,390
2016-08-10T06:26:43.672Z,405
2016-08-10T06:27:46.357Z,415
2016-08-10T06:29:45.715Z,485
2016-08-10T06:30:45.537Z,525
2016-08-10T06:31:44.151Z,545
2016-08-10T06:32:45.249Z,560
2016-08-10T06:33:43.670Z,575
2016-08-10T06:34:43.657Z,610
2016-08-10T06:35:43.657Z,625
2016-08-10T06:36:45.967Z,630
2016-08-10T06:38:44.981Z,635
2016-08-10T06:39:45.258Z,640
2016-08-10T06:40:44.276Z,650
2016-08-10T06:41:43.649Z,735
2016-08-10T06:42:43.673Z,1010
2016-08-10T06:43:43.658Z,1055
2016-08-10T06:44:43.653Z,1465
2016-08-10T06:45:43.656Z,970
2016-08-10T06:46:43.652Z,1020
2016-08-10T06:47:43.658Z,655
2016-08-10T06:48:43.669Z,600
2016-08-10T06:49:43.659Z,565
2016-08-10T06:50:43.671Z,540
2016-08-10T06:51:43.650Z,515
2016-08-10T06:52:43.663Z,520
2016-08-10T06:53:43.676Z,550
2016-08-10T06:54:43.673Z,585
2016-08-10T06:55:43.678Z,640
2016-08-10T06:56:43.666Z,710
2016-08-10T06:57:43.685Z,800
2016-08-10T06:58:43.688Z,795
2016-08-10T06:59:43.682Z,780
2016-08-10T07:00:43.682Z,775
2016-08-10T07:01:43.678Z,915
2016-08-10T07:02:43.687Z,890
2016-08-10T07:03:43.695Z,780
2016-08-10T07:04:43.693Z,775
2016-08-10T07:05:43.708Z,755
2016-08-10T07:06:43.719Z,740
2016-08-10T07:07:43.711Z,690
2016-08-10T07:08:44.057Z,670
2016-08-10T07:09:44.407Z,700
2016-08-10T07:10:43.710Z,660
2016-08-10T07:11:43.712Z,620
2016-08-10T07:12:43.723Z,615
2016-08-10T07:13:43.726Z,610
2016-08-10T07:14:43.729Z,630
2016-08-10T07:15:43.739Z,665
2016-08-10T07:16:43.747Z,840
2016-08-10T07:17:43.746Z,870
2016-08-10T07:18:43.748Z,930
2016-08-10T07:19:43.752Z,930
2016-08-10T07:20:43.751Z,905
2016-08-10T07:21:43.749Z,870
2016-08-10T07:22:43.770Z,850
2016-08-10T07:23:43.782Z,860
2016-08-10T07:24:58.886Z,835
2016-08-10T07:25:45.936Z,875
2016-08-10T07:26:44.988Z,965
2016-08-10T07:27:59.663Z,1060
2016-08-10T07:28:59.231Z,1165
2016-08-10T07:29:44.690Z,1210
2016-08-10T07:30:43.802Z,1215
2016-08-10T07:31:44.813Z,1280
2016-08-10T07:32:43.813Z,1350
2016-08-10T07:34:00.033Z,1350
2016-08-10T07:35:00.092Z,1405
2016-08-10T07:35:44.730Z,1550
2016-08-10T07:36:59.809Z,1730
2016-08-10T07:37:43.859Z,1720
2016-08-10T07:38:58.774Z,1650
2016-08-10T07:39:44.156Z,1655
2016-08-10T07:40:44.365Z,1645
2016-08-10T07:41:43.876Z,1680
2016-08-10T07:42:43.899Z,1755
2016-08-10T07:43:43.893Z,1810
2016-08-10T07:44:43.901Z,1825
2016-08-10T07:45:47.042Z,1840
2016-08-10T07:46:46.138Z,1910
2016-08-10T07:47:46.952Z,1335
2016-08-10T07:48:47.478Z,1475
2016-08-10T07:49:44.518Z,1055
2016-08-10T07:50:43.966Z,1755
2016-08-10T07:51:44.216Z,1885
2016-08-10T07:52:44.054Z,1450
2016-08-10T07:53:43.995Z,1775
2016-08-10T07:54:44.454Z,1775
2016-08-10T07:55:47.631Z,1445
2016-08-10T07:56:46.560Z,485
2016-08-10T07:57:47.472Z,435
2016-08-10T07:58:44.816Z,460
2016-08-10T07:59:44.159Z,535
2016-08-10T08:00:45.149Z,710
2016-08-10T08:01:44.081Z,740
2016-08-10T08:02:44.107Z,525
2016-08-10T08:03:44.103Z,515
2016-08-10T08:04:44.106Z,525
2016-08-10T08:05:45.504Z,535
2016-08-10T08:06:45.026Z,575
2016-08-10T08:07:44.156Z,620
2016-08-10T08:08:44.155Z,695
2016-08-10T08:09:44.168Z,770
2016-08-10T08:10:44.183Z,1560
2016-08-10T08:11:44.181Z,1640
2016-08-10T08:12:44.189Z,1920
2016-08-10T08:13:44.188Z,1880
2016-08-10T08:14:44.197Z,1750
2016-08-10T08:15:44.210Z,1730
2016-08-10T08:16:44.221Z,1765
2016-08-10T08:17:44.228Z,1845
2016-08-10T08:18:44.245Z,1830
2016-08-10T08:19:44.942Z,1540
2016-08-10T08:20:44.946Z,1735
2016-08-10T08:21:44.270Z,1280
2016-08-10T08:22:44.976Z,1320
2016-08-10T08:23:44.283Z,810
2016-08-10T08:24:44.291Z,655
2016-08-10T08:25:44.294Z,580
2016-08-10T08:26:44.313Z,575
2016-08-10T08:27:44.328Z,620
2016-08-10T08:28:44.328Z,640
2016-08-10T08:29:44.340Z,660
2016-08-10T08:30:44.338Z,675
2016-08-10T08:31:44.347Z,685
2016-08-10T08:32:45.062Z,725
2016-08-10T08:33:44.372Z,750
2016-08-10T08:34:44.392Z,725
2016-08-10T08:35:44.386Z,745
2016-08-10T08:36:44.391Z,805
2016-08-10T08:37:44.398Z,830
2016-08-10T08:38:44.419Z,815
2016-08-10T08:39:44.435Z,785
2016-08-10T08:40:44.427Z,775
2016-08-10T08:41:44.436Z,755
2016-08-10T08:42:44.442Z,740
2016-08-10T08:43:59.455Z,735
2016-08-10T08:45:00.474Z,735
2016-08-10T08:45:45.159Z,720
2016-08-10T08:46:59.574Z,730
2016-08-10T08:47:45.217Z,735
2016-08-10T08:48:44.474Z,780
2016-08-10T08:49:44.533Z,770
2016-08-10T08:50:44.480Z,770
2016-08-10T08:51:44.504Z,735
2016-08-10T08:52:59.769Z,720
2016-08-10T08:53:45.052Z,710
2016-08-10T08:55:59.432Z,750
2016-08-10T08:56:44.520Z,775
2016-08-10T08:57:45.437Z,810
2016-08-10T08:58:44.534Z,815
2016-08-10T08:59:44.544Z,805
2016-08-10T09:00:44.537Z,835
2016-08-10T09:01:44.547Z,905
2016-08-10T09:02:44.554Z,880
2016-08-10T09:03:44.563Z,815
2016-08-10T09:05:48.142Z,750
2016-08-10T09:06:46.063Z,755
2016-08-10T09:07:47.042Z,730
2016-08-10T09:08:46.606Z,750
2016-08-10T09:09:45.278Z,775
2016-08-10T09:10:44.594Z,780
2016-08-10T09:11:44.595Z,775
2016-08-10T09:12:44.626Z,750
2016-08-10T09:14:47.809Z,710
2016-08-10T09:15:46.100Z,690
2016-08-10T09:16:47.539Z,665
2016-08-10T09:17:44.628Z,670
2016-08-10T09:18:44.647Z,660
2016-08-10T09:19:44.955Z,625
2016-08-10T09:20:44.643Z,555
2016-08-10T09:21:44.710Z,540
2016-08-10T09:22:44.655Z,520
2016-08-10T09:23:44.675Z,485
2016-08-10T09:24:44.656Z,460
2016-08-10T09:25:44.669Z,465
2016-08-10T09:26:44.682Z,455
2016-08-10T09:27:44.681Z,510
2016-08-10T09:28:44.686Z,585
2016-08-10T09:29:44.701Z,635
2016-08-10T09:30:44.696Z,665
2016-08-10T09:31:44.693Z,700
2016-08-10T09:32:44.690Z,715
2016-08-10T09:33:44.704Z,730
2016-08-10T09:34:44.706Z,765
2016-08-10T09:35:44.731Z,795
2016-08-10T09:36:44.721Z,830
2016-08-10T09:37:44.725Z,815
2016-08-10T09:38:44.728Z,785
2016-08-10T09:39:44.699Z,725
2016-08-10T09:40:44.728Z,610
2016-08-10T09:41:44.738Z,510
2016-08-10T09:42:44.732Z,425
2016-08-10T09:43:44.735Z,385
2016-08-10T09:44:44.757Z,385
2016-08-10T09:45:44.748Z,405
2016-08-10T09:46:44.759Z,430
2016-08-10T09:47:44.755Z,520
2016-08-10T09:48:44.769Z,650
2016-08-10T09:49:44.871Z,780
2016-08-10T09:50:44.771Z,875
2016-08-10T09:51:44.781Z,925
2016-08-10T09:52:44.869Z,985
2016-08-10T09:53:44.787Z,1035
2016-08-10T09:55:44.790Z,1010
2016-08-10T09:56:44.810Z,985
2016-08-10T09:57:44.802Z,970
2016-08-10T09:58:44.810Z,950
2016-08-10T09:59:44.811Z,915
2016-08-10T10:00:44.807Z,870
2016-08-10T10:01:46.933Z,840
2016-08-10T10:02:59.741Z,800
2016-08-10T10:04:00.894Z,735
2016-08-10T10:05:46.384Z,695
2016-08-10T10:06:45.264Z,755
2016-08-10T10:07:44.847Z,775
2016-08-10T10:08:44.911Z,810
2016-08-10T10:09:44.862Z,805
2016-08-10T10:11:00.191Z,770
2016-08-10T10:11:45.920Z,740
2016-08-10T10:12:45.030Z,730
2016-08-10T10:13:59.793Z,765
2016-08-10T10:14:44.882Z,780
2016-08-10T10:15:44.884Z,775
2016-08-10T10:16:44.889Z,770
2016-08-10T10:17:44.897Z,790
2016-08-10T10:18:44.909Z,825
2016-08-10T10:19:44.913Z,865
2016-08-10T10:20:44.911Z,885
2016-08-10T10:21:44.932Z,885
2016-08-10T10:22:46.883Z,900
2016-08-10T10:24:45.987Z,900
2016-08-10T10:25:46.704Z,885
2016-08-10T10:26:44.941Z,885
2016-08-10T10:27:44.953Z,890
2016-08-10T10:28:45.663Z,895
2016-08-10T10:29:44.973Z,880
2016-08-10T10:30:44.971Z,890
2016-08-10T10:31:48.370Z,895
2016-08-10T10:33:47.883Z,855
2016-08-10T10:34:46.806Z,840
2016-08-10T10:35:45.431Z,840
2016-08-10T10:36:45.124Z,825
2016-08-10T10:37:45.002Z,815
2016-08-10T10:38:45.204Z,815
2016-08-10T10:39:45.024Z,820
2016-08-10T10:40:45.042Z,800
2016-08-10T10:41:45.032Z,780
2016-08-10T10:42:45.033Z,770
2016-08-10T10:43:45.049Z,760
2016-08-10T10:44:45.052Z,720
2016-08-10T10:45:45.056Z,665
2016-08-10T10:46:45.058Z,630
2016-08-10T10:47:45.075Z,605
2016-08-10T10:48:45.083Z,605
2016-08-10T10:49:45.088Z,605
2016-08-10T10:50:45.090Z,625
2016-08-10T10:51:45.090Z,660
2016-08-10T10:52:45.104Z,675
2016-08-10T10:53:45.108Z,665
2016-08-10T10:54:45.106Z,650
2016-08-10T10:55:45.122Z,645
2016-08-10T10:56:45.115Z,645
2016-08-10T10:57:45.129Z,640
2016-08-10T10:58:45.136Z,650
2016-08-10T10:59:45.150Z,645
2016-08-10T11:00:45.145Z,600
2016-08-10T11:01:45.146Z,520
2016-08-10T11:02:45.150Z,465
2016-08-10T11:03:45.164Z,430
2016-08-10T11:04:45.166Z,425
2016-08-10T11:05:45.161Z,450
2016-08-10T11:06:45.181Z,475
2016-08-10T11:07:45.181Z,490
2016-08-10T11:08:45.201Z,495
2016-08-10T11:09:45.191Z,485
2016-08-10T11:10:45.197Z,460
2016-08-10T11:11:45.199Z,445
2016-08-10T11:12:45.201Z,445
2016-08-10T11:13:45.209Z,445
2016-08-10T11:14:45.209Z,450
2016-08-10T11:15:45.219Z,445
2016-08-10T11:16:45.217Z,445
2016-08-10T11:17:45.225Z,455
2016-08-10T11:18:45.237Z,460
2016-08-10T11:19:46.584Z,455
2016-08-10T11:20:46.436Z,440
2016-08-10T11:22:00.367Z,420
2016-08-10T11:22:45.648Z,420
2016-08-10T11:24:00.766Z,430
2016-08-10T11:24:45.245Z,430
2016-08-10T11:25:46.208Z,430
2016-08-10T11:26:45.249Z,435
2016-08-10T11:27:45.306Z,475
2016-08-10T11:29:00.534Z,530
2016-08-10T11:32:00.185Z,625
2016-08-10T11:32:45.274Z,630
2016-08-10T11:33:45.480Z,620
2016-08-10T11:34:45.288Z,600
2016-08-10T11:35:45.993Z,565
2016-08-10T11:36:45.288Z,550
2016-08-10T11:37:45.288Z,555
2016-08-10T11:38:45.304Z,585
2016-08-10T11:39:45.293Z,640
2016-08-10T11:40:46.888Z,675
2016-08-10T11:41:50.537Z,710
2016-08-10T11:42:47.567Z,725
2016-08-10T11:43:46.757Z,745
2016-08-10T11:44:47.738Z,755
2016-08-10T11:45:45.498Z,765
2016-08-10T11:46:45.315Z,775
2016-08-10T11:47:45.316Z,805
2016-08-10T11:48:45.335Z,830
2016-08-10T11:50:49.594Z,870
2016-08-10T11:51:47.158Z,875
2016-08-10T11:52:46.732Z,875
2016-08-10T11:53:45.341Z,875
2016-08-10T11:54:46.044Z,880
2016-08-10T11:55:45.763Z,885
2016-08-10T11:56:45.348Z,880
2016-08-10T11:57:45.460Z,890
2016-08-10T11:58:45.361Z,905
2016-08-10T11:59:45.369Z,905
2016-08-10T12:00:45.377Z,900
2016-08-10T12:01:45.368Z,895
2016-08-10T12:02:45.374Z,890
2016-08-10T12:03:45.396Z,870
2016-08-10T12:04:45.390Z,835
2016-08-10T12:05:45.400Z,810
2016-08-10T12:06:45.396Z,790
2016-08-10T12:07:45.396Z,770
2016-08-10T12:08:45.559Z,740
2016-08-10T12:09:45.425Z,705
2016-08-10T12:10:45.419Z,700
2016-08-10T12:11:45.418Z,715
2016-08-10T12:12:45.419Z,760
2016-08-10T12:13:45.435Z,785
2016-08-10T12:14:45.442Z,785
2016-08-10T12:15:45.451Z,775
2016-08-10T12:16:45.444Z,745
2016-08-10T12:17:45.459Z,720
2016-08-10T12:18:45.459Z,710
2016-08-10T12:19:46.185Z,710
2016-08-10T12:20:45.464Z,715
2016-08-10T12:21:45.471Z,710
2016-08-10T12:22:45.475Z,730
2016-08-10T12:23:45.483Z,780
2016-08-10T12:24:45.510Z,785
2016-08-10T12:25:45.491Z,755
2016-08-10T12:26:45.501Z,705
2016-08-10T12:27:45.508Z,665
2016-08-10T12:28:45.520Z,655
2016-08-10T12:29:45.533Z,665
2016-08-10T12:30:45.528Z,685
2016-08-10T12:31:45.520Z,690
2016-08-10T12:32:45.542Z,695
2016-08-10T12:33:45.534Z,710
2016-08-10T12:34:45.541Z,720
2016-08-10T12:35:45.556Z,715
2016-08-10T12:36:45.560Z,690
2016-08-10T12:38:00.980Z,640
2016-08-10T12:39:01.390Z,620
2016-08-10T12:39:47.382Z,620
2016-08-10T12:40:45.879Z,625
2016-08-10T12:42:00.805Z,595
2016-08-10T12:42:45.695Z,560
2016-08-10T12:43:45.645Z,520
2016-08-10T12:44:45.597Z,465
2016-08-10T12:45:45.654Z,445
2016-08-10T12:47:01.482Z,465
2016-08-10T12:47:46.256Z,485
2016-08-10T12:48:46.470Z,530
2016-08-10T12:49:46.374Z,550
2016-08-10T12:50:46.079Z,565
2016-08-10T12:51:46.824Z,560
2016-08-10T12:52:45.650Z,560
2016-08-10T12:53:45.638Z,530
2016-08-10T12:54:45.651Z,500
2016-08-10T12:55:45.656Z,495
2016-08-10T12:56:45.654Z,480
2016-08-10T12:57:45.655Z,450
2016-08-10T12:59:47.285Z,345
2016-08-10T13:00:48.987Z,320
2016-08-10T13:01:48.744Z,315
2016-08-10T13:02:47.314Z,335
2016-08-10T13:03:45.861Z,400
2016-08-10T13:04:46.002Z,485
2016-08-10T13:05:45.696Z,560
2016-08-10T13:06:45.686Z,620
2016-08-10T13:07:49.092Z,670
2016-08-10T13:09:48.242Z,720
2016-08-10T13:10:48.519Z,730
2016-08-10T13:11:47.498Z,720
2016-08-10T13:12:46.289Z,690
2016-08-10T13:13:45.736Z,625
2016-08-10T13:14:45.727Z,575
2016-08-10T13:15:45.723Z,530
2016-08-10T13:16:45.747Z,500
2016-08-10T13:17:45.755Z,470
2016-08-10T13:18:45.739Z,470
2016-08-10T13:19:45.737Z,475
2016-08-10T13:20:45.760Z,490
2016-08-10T13:21:45.752Z,495
2016-08-10T13:22:45.748Z,485
2016-08-10T13:23:45.758Z,465
2016-08-10T13:24:45.766Z,445
2016-08-10T13:25:45.778Z,415
2016-08-10T13:26:45.788Z,400
2016-08-10T13:27:45.774Z,405
2016-08-10T13:28:45.780Z,415
2016-08-10T13:29:45.798Z,430
2016-08-10T13:30:45.786Z,470
2016-08-10T13:31:45.788Z,470
2016-08-10T13:32:45.791Z,420
2016-08-10T13:33:45.790Z,380
2016-08-10T13:34:45.809Z,370
2016-08-10T13:35:45.800Z,370
2016-08-10T13:36:45.798Z,400
2016-08-10T13:37:45.811Z,425
2016-08-10T13:38:45.801Z,475
2016-08-10T13:39:45.819Z,495
2016-08-10T13:40:45.810Z,530
2016-08-10T13:41:45.818Z,550
2016-08-10T13:42:45.823Z,570
2016-08-10T13:43:45.818Z,570
2016-08-10T13:44:45.818Z,550
2016-08-10T13:45:45.831Z,515
2016-08-10T13:46:45.828Z,550
2016-08-10T13:47:45.837Z,525
2016-08-10T13:48:45.851Z,490
2016-08-10T13:49:45.834Z,495
2016-08-10T13:50:45.840Z,515
2016-08-10T13:51:45.844Z,500
2016-08-10T13:52:45.848Z,490
2016-08-10T13:53:46.551Z,500
2016-08-10T13:54:45.855Z,490
2016-08-10T13:55:48.355Z,465
2016-08-10T13:56:48.017Z,460
2016-08-10T13:57:47.015Z,485
2016-08-10T13:58:47.424Z,500
2016-08-10T13:59:46.123Z,495
2016-08-10T14:00:46.335Z,490
2016-08-10T14:01:45.871Z,485
2016-08-10T14:02:45.875Z,500
2016-08-10T14:03:45.888Z,510
2016-08-10T14:04:46.342Z,555
2016-08-10T14:05:47.532Z,590
2016-08-10T14:06:46.840Z,630
2016-08-10T14:07:46.844Z,660
2016-08-10T14:08:45.896Z,665
2016-08-10T14:09:46.797Z,660
2016-08-10T14:10:46.097Z,645
2016-08-10T14:11:46.059Z,590
2016-08-10T14:12:45.911Z,525
2016-08-10T14:13:45.923Z,485
2016-08-10T14:14:46.618Z,460
2016-08-10T14:15:45.927Z,460
2016-08-10T14:16:48.679Z,450
2016-08-10T14:17:48.988Z,410
2016-08-10T14:18:49.670Z,375
2016-08-10T14:19:46.880Z,355
2016-08-10T14:20:47.244Z,365
2016-08-10T14:21:46.176Z,390
2016-08-10T14:22:46.775Z,435
2016-08-10T14:23:45.938Z,465
2016-08-10T14:24:46.011Z,475
2016-08-10T14:25:46.822Z,485
2016-08-10T14:26:47.625Z,510
2016-08-10T14:27:48.831Z,525
2016-08-10T14:29:47.180Z,550
2016-08-10T14:30:46.377Z,585
2016-08-10T14:31:47.311Z,605